sensor_id;sensor_type;location;lat;lon;timestamp;pressure;altitude;pressure_sealevel;temperature;humidity
58739;BME280;44512;53.046;18.604;2023-01-28T00:04:08;102658.68;;;2.03;56.57
58739;BME280;44512;53.046;18.604;2023-01-28T00:14:36;102659.64;;;2.02;56.64
58739;BME280;44512;53.046;18.604;2023-01-28T00:25:05;102640.16;;;2.00;56.77
58739;BME280;44512;53.046;18.604;2023-01-28T00:35:33;102620.73;;;1.98;56.96
58739;BME280;44512;53.046;18.604;2023-01-28T00:46:03;102629.59;;;1.99;57.15
58739;BME280;44512;53.046;18.604;2023-01-28T00:56:30;102619.02;;;1.97;57.29
58739;BME280;44512;53.046;18.604;2023-01-28T01:06:58;102633.29;;;1.96;57.41
58739;BME280;44512;53.046;18.604;2023-01-28T01:17:30;102638.00;;;1.93;57.53
58739;BME280;44512;53.046;18.604;2023-01-28T01:27:55;102642.48;;;1.92;57.69
58739;BME280;44512;53.046;18.604;2023-01-28T01:38:24;102639.02;;;1.90;57.76
58739;BME280;44512;53.046;18.604;2023-01-28T01:48:54;102632.84;;;1.90;57.73
58739;BME280;44512;53.046;18.604;2023-01-28T01:59:25;102630.27;;;1.88;57.70
58739;BME280;44512;53.046;18.604;2023-01-28T02:09:49;102629.43;;;1.88;57.65
58739;BME280;44512;53.046;18.604;2023-01-28T02:41:25;102629.53;;;1.86;57.37
58739;BME280;44512;53.046;18.604;2023-01-28T02:51:55;102617.10;;;1.85;57.43
58739;BME280;44512;53.046;18.604;2023-01-28T03:12:41;102614.65;;;1.82;57.13
58739;BME280;44512;53.046;18.604;2023-01-28T03:23:11;102621.70;;;1.83;57.02
58739;BME280;44512;53.046;18.604;2023-01-28T03:33:36;102621.70;;;1.83;56.73
58739;BME280;44512;53.046;18.604;2023-01-28T03:44:05;102623.62;;;1.81;56.60
58739;BME280;44512;53.046;18.604;2023-01-28T03:54:33;102636.01;;;1.82;56.38
58739;BME280;44512;53.046;18.604;2023-01-28T04:05:02;102638.69;;;1.82;56.29
58739;BME280;44512;53.046;18.604;2023-01-28T04:15:30;102634.08;;;1.84;56.08
58739;BME280;44512;53.046;18.604;2023-01-28T04:25:58;102642.10;;;1.84;55.84
58739;BME280;44512;53.046;18.604;2023-01-28T04:36:27;102637.72;;;1.83;55.74
58739;BME280;44512;53.046;18.604;2023-01-28T04:46:55;102636.76;;;1.84;55.59
58739;BME280;44512;53.046;18.604;2023-01-28T04:57:23;102637.72;;;1.83;55.43
58739;BME280;44512;53.046;18.604;2023-01-28T05:07:53;102640.28;;;1.85;55.20
58739;BME280;44512;53.046;18.604;2023-01-28T05:18:20;102650.11;;;1.84;55.14
58739;BME280;44512;53.046;18.604;2023-01-28T05:28:49;102654.59;;;1.83;55.29
58739;BME280;44512;53.046;18.604;2023-01-28T05:39:17;102663.46;;;1.84;55.59
58739;BME280;44512;53.046;18.604;2023-01-28T05:49:46;102667.37;;;1.78;56.01
58739;BME280;44512;53.046;18.604;2023-01-28T06:00:14;102666.53;;;1.78;56.29
58739;BME280;44512;53.046;18.604;2023-01-28T06:10:42;102678.05;;;1.78;56.45
58739;BME280;44512;53.046;18.604;2023-01-28T06:21:11;102683.40;;;1.78;56.40
58739;BME280;44512;53.046;18.604;2023-01-28T06:31:39;102692.37;;;1.77;56.37
58739;BME280;44512;53.046;18.604;2023-01-28T06:42:08;102698.56;;;1.78;56.45
58739;BME280;44512;53.046;18.604;2023-01-28T06:52:36;102705.62;;;1.79;56.48
58739;BME280;44512;53.046;18.604;2023-01-28T07:03:04;102698.56;;;1.78;56.53
58739;BME280;44512;53.046;18.604;2023-01-28T07:13:33;102704.08;;;1.75;56.68
58739;BME280;44512;53.046;18.604;2023-01-28T07:24:02;102704.00;;;1.76;56.70
58739;BME280;44512;53.046;18.604;2023-01-28T07:34:30;102715.54;;;1.77;56.75
58739;BME280;44512;53.046;18.604;2023-01-28T07:44:58;102713.83;;;1.76;56.98
58739;BME280;44512;53.046;18.604;2023-01-28T07:55:27;102714.58;;;1.78;56.52
58739;BME280;44512;53.046;18.604;2023-01-28T08:05:56;102712.66;;;1.80;56.30
58739;BME280;44512;53.046;18.604;2023-01-28T08:16:23;102710.78;;;1.82;56.07
58739;BME280;44512;53.046;18.604;2023-01-28T08:26:52;102718.79;;;1.82;56.06
58739;BME280;44512;53.046;18.604;2023-01-28T08:37:20;102721.35;;;1.83;55.97
58739;BME280;44512;53.046;18.604;2023-01-28T08:47:54;102735.39;;;1.87;55.93
58739;BME280;44512;53.046;18.604;2023-01-28T08:58:17;102733.47;;;1.89;55.86
58739;BME280;44512;53.046;18.604;2023-01-28T09:08:46;102726.13;;;1.93;55.83
58739;BME280;44512;53.046;18.604;2023-01-28T09:19:14;102728.69;;;1.94;55.89
58739;BME280;44512;53.046;18.604;2023-01-28T09:34:50;102718.77;;;1.96;55.87
58739;BME280;44512;53.046;18.604;2023-01-28T09:45:28;102710.46;;;2.01;55.65
58739;BME280;44512;53.046;18.604;2023-01-28T09:55:56;102717.34;;;2.05;55.48
58739;BME280;44512;53.046;18.604;2023-01-28T10:06:33;102699.20;;;2.10;55.22
58739;BME280;44512;53.046;18.604;2023-01-28T10:16:51;102708.01;;;2.12;55.09
58739;BME280;44512;53.046;18.604;2023-01-28T10:27:16;102717.05;;;2.09;54.85
58739;BME280;44512;53.046;18.604;2023-01-28T10:37:40;102729.55;;;2.09;54.95
58739;BME280;44512;53.046;18.604;2023-01-28T11:19:35;102704.37;;;2.13;54.90
58739;BME280;44512;53.046;18.604;2023-01-28T11:30:03;102687.84;;;2.06;55.00
58739;BME280;44512;53.046;18.604;2023-01-28T11:40:31;102703.11;;;2.19;54.88
58739;BME280;44512;53.046;18.604;2023-01-28T12:01:43;102674.70;;;2.18;54.36
58739;BME280;44512;53.046;18.604;2023-01-28T12:12:05;102674.88;;;2.15;53.90
58739;BME280;44512;53.046;18.604;2023-01-28T12:22:36;102670.09;;;2.20;53.63
58739;BME280;44512;53.046;18.604;2023-01-28T13:14:47;102677.26;;;2.19;52.70
58739;BME280;44512;53.046;18.604;2023-01-28T13:25:22;102664.58;;;2.23;52.51
58739;BME280;44512;53.046;18.604;2023-01-28T13:35:51;102662.09;;;2.20;51.91
58739;BME280;44512;53.046;18.604;2023-01-28T14:07:18;102669.35;;;2.18;50.72
58739;BME280;44512;53.046;18.604;2023-01-28T14:17:46;102675.94;;;2.12;49.94
58739;BME280;44512;53.046;18.604;2023-01-28T14:28:06;102679.09;;;2.04;49.83
58739;BME280;44512;53.046;18.604;2023-01-28T14:38:38;102672.78;;;2.05;50.14
58739;BME280;44512;53.046;18.604;2023-01-28T14:59:54;102671.63;;;2.09;49.97
58739;BME280;44512;53.046;18.604;2023-01-28T15:10:06;102667.45;;;2.05;49.84
58739;BME280;44512;53.046;18.604;2023-01-28T15:20:27;102664.02;;;2.03;49.33
58739;BME280;44512;53.046;18.604;2023-01-28T15:30:56;102650.85;;;2.00;49.44
58739;BME280;44512;53.046;18.604;2023-01-28T15:41:34;102645.33;;;2.03;49.18
58739;BME280;44512;53.046;18.604;2023-01-28T15:51:53;102628.92;;;1.95;48.68
58739;BME280;44512;53.046;18.604;2023-01-28T16:02:23;102624.94;;;1.88;48.93
58739;BME280;44512;53.046;18.604;2023-01-28T16:12:57;102630.16;;;1.90;48.89
58739;BME280;44512;53.046;18.604;2023-01-28T16:23:24;102648.01;;;1.89;49.14
58739;BME280;44512;53.046;18.604;2023-01-28T16:33:47;102649.93;;;1.87;49.41
58739;BME280;44512;53.046;18.604;2023-01-28T16:44:16;102645.91;;;1.80;49.68
58739;BME280;44512;53.046;18.604;2023-01-28T16:54:43;102661.18;;;1.78;49.80
58739;BME280;44512;53.046;18.604;2023-01-28T17:05:12;102666.53;;;1.78;49.79
58739;BME280;44512;53.046;18.604;2023-01-28T17:15:40;102688.91;;;1.75;49.99
58739;BME280;44512;53.046;18.604;2023-01-28T17:26:11;102687.20;;;1.74;50.32
58739;BME280;44512;53.046;18.604;2023-01-28T17:36:37;102680.34;;;1.70;50.29
58739;BME280;44512;53.046;18.604;2023-01-28T17:47:05;102677.97;;;1.66;50.49
58739;BME280;44512;53.046;18.604;2023-01-28T17:57:34;102665.47;;;1.52;50.47
58739;BME280;44512;53.046;18.604;2023-01-28T18:08:03;102665.84;;;1.46;50.74
58739;BME280;44512;53.046;18.604;2023-01-28T18:18:31;102687.27;;;1.44;51.03
58739;BME280;44512;53.046;18.604;2023-01-28T18:28:59;102681.01;;;1.45;51.32
58739;BME280;44512;53.046;18.604;2023-01-28T18:39:28;102690.15;;;1.41;51.78
58739;BME280;44512;53.046;18.604;2023-01-28T18:49:56;102697.36;;;1.39;52.14
58739;BME280;44512;53.046;18.604;2023-01-28T19:00:25;102691.16;;;1.39;52.60
58739;BME280;44512;53.046;18.604;2023-01-28T19:10:54;102663.84;;;1.35;53.16
58739;BME280;44512;53.046;18.604;2023-01-28T19:21:22;102663.16;;;1.32;53.67
58739;BME280;44512;53.046;18.604;2023-01-28T19:31:50;102663.26;;;1.30;54.15
58739;BME280;44512;53.046;18.604;2023-01-28T19:42:18;102675.80;;;1.28;54.83
58739;BME280;44512;53.046;18.604;2023-01-28T19:52:47;102666.20;;;1.25;55.38
58739;BME280;44512;53.046;18.604;2023-01-28T20:03:15;102671.72;;;1.22;55.85
58739;BME280;44512;53.046;18.604;2023-01-28T20:13:45;102664.76;;;1.20;56.32
58739;BME280;44512;53.046;18.604;2023-01-28T20:24:14;102654.43;;;1.14;56.70
58739;BME280;44512;53.046;18.604;2023-01-28T20:34:41;102644.66;;;1.14;56.97
58739;BME280;44512;53.046;18.604;2023-01-28T20:45:09;102622.36;;;1.15;57.19
58739;BME280;44512;53.046;18.604;2023-01-28T20:55:37;102628.73;;;1.13;57.49
58739;BME280;44512;53.046;18.604;2023-01-28T21:06:06;102632.46;;;1.10;57.74
58739;BME280;44512;53.046;18.604;2023-01-28T21:16:34;102640.36;;;1.12;57.95
58739;BME280;44512;53.046;18.604;2023-01-28T21:27:03;102643.97;;;1.11;58.23
58739;BME280;44512;53.046;18.604;2023-01-28T21:37:32;102637.78;;;1.10;58.51
58739;BME280;44512;53.046;18.604;2023-01-28T21:48:00;102614.05;;;1.06;58.70
58739;BME280;44512;53.046;18.604;2023-01-28T21:58:28;102631.59;;;1.10;58.94
58739;BME280;44512;53.046;18.604;2023-01-28T22:08:57;102635.22;;;1.09;59.26
58739;BME280;44512;53.046;18.604;2023-01-28T22:19:25;102629.88;;;1.09;59.49
58739;BME280;44512;53.046;18.604;2023-01-28T22:29:54;102622.63;;;1.11;59.66
58739;BME280;44512;53.046;18.604;2023-01-28T22:40:22;102613.88;;;1.09;59.79
58739;BME280;44512;53.046;18.604;2023-01-28T22:50:51;102614.80;;;1.08;59.94
58739;BME280;44512;53.046;18.604;2023-01-28T23:01:19;102611.39;;;1.06;60.05
58739;BME280;44512;53.046;18.604;2023-01-28T23:11:48;102587.38;;;1.06;60.12
58739;BME280;44512;53.046;18.604;2023-01-28T23:22:22;102562.41;;;1.07;60.27
58739;BME280;44512;53.046;18.604;2023-01-28T23:32:46;102548.98;;;1.08;60.38
58739;BME280;44512;53.046;18.604;2023-01-28T23:43:13;102536.89;;;1.02;60.51
58739;BME280;44512;53.046;18.604;2023-01-28T23:53:42;102532.73;;;0.98;60.69
